TimeAEST,TemperatureF,Dew PointF,Humidity,Sea Level PressureIn,VisibilityMPH,Wind Direction,Wind SpeedMPH,Gust SpeedMPH,PrecipitationIn,Events,Conditions,WindDirDegrees,DateUTC
12:00 AM,67,63,83,30.25,,ESE,27.6,,,,,120,2013-09-04 14:00:00
12:00 AM,66.2,62.6,88,30.24,-9999.0,ESE,27.6,-,N/A,,Unknown,120,2013-09-04 14:00:00
12:30 AM,68.0,62.6,83,30.24,-9999.0,ESE,28.8,-,N/A,,Unknown,120,2013-09-04 14:30:00
1:00 AM,68.0,62.6,83,30.21,-9999.0,ESE,27.6,-,N/A,,Unknown,120,2013-09-04 15:00:00
1:30 AM,69.8,62.6,78,30.21,-9999.0,SE,32.2,-,N/A,,Unknown,130,2013-09-04 15:30:00
2:00 AM,69.8,64.4,83,30.21,-9999.0,SE,33.4,-,N/A,,Unknown,130,2013-09-04 16:00:00
2:30 AM,69.8,62.6,78,30.21,-9999.0,SE,31.1,-,N/A,,Unknown,130,2013-09-04 16:30:00
3:00 AM,69,61,69,30.20,,ESE,32.2,,,,,120,2013-09-04 17:00:00
3:00 AM,69.8,60.8,73,30.18,-9999.0,ESE,32.2,-,N/A,,Unknown,120,2013-09-04 17:00:00
3:30 AM,69.8,62.6,78,30.18,-9999.0,ESE,31.1,-,N/A,,Unknown,120,2013-09-04 17:30:00
4:00 AM,68.0,62.6,83,30.18,-9999.0,SE,31.1,-,N/A,,Unknown,130,2013-09-04 18:00:00
4:30 AM,68.0,62.6,83,30.21,-9999.0,ESE,27.6,-,N/A,,Unknown,120,2013-09-04 18:30:00
5:00 AM,68.0,60.8,78,30.21,-9999.0,SE,27.6,-,N/A,,Unknown,130,2013-09-04 19:00:00
5:30 AM,66.2,64.4,94,30.21,-9999.0,ESE,26.5,-,N/A,,Unknown,110,2013-09-04 19:30:00
5:52 AM,66.2,62.6,88,30.21,-9999.0,ESE,26.5,52.9,N/A,,Unknown,120,2013-09-04 19:52:00
5:53 AM,66.2,64.4,94,30.21,-9999.0,ESE,41.4,52.9,N/A,,Unknown,120,2013-09-04 19:53:00
6:00 AM,65,63,91,30.22,,ESE,28.8,,,,,120,2013-09-04 20:00:00
6:00 AM,66.2,62.6,88,30.21,-9999.0,ESE,28.8,52.9,N/A,,Unknown,120,2013-09-04 20:00:00
6:30 AM,68.0,62.6,83,30.21,-9999.0,ESE,29.9,-,N/A,,Unknown,120,2013-09-04 20:30:00
7:00 AM,68.0,60.8,78,30.21,-9999.0,ESE,34.5,-,N/A,,Unknown,120,2013-09-04 21:00:00
7:30 AM,69.8,59.0,68,30.24,-9999.0,ESE,31.1,-,N/A,,Unknown,120,2013-09-04 21:30:00
8:00 AM,69.8,59.0,68,30.24,-9999.0,SE,31.1,-,N/A,,Unknown,130,2013-09-04 22:00:00
8:30 AM,71.6,60.8,69,30.24,-9999.0,ESE,29.9,-,N/A,,Unknown,120,2013-09-04 22:30:00
9:00 AM,69,60,65,30.26,,ESE,32.2,,,,,120,2013-09-04 23:00:00
9:00 AM,69.8,59.0,68,30.24,-9999.0,ESE,32.2,-,N/A,,Unknown,120,2013-09-04 23:00:00
9:09 AM,69.8,64.4,83,30.27,-9999.0,ESE,33.4,49.5,N/A,,Unknown,110,2013-09-04 23:09:00
9:30 AM,66.2,64.4,94,30.27,-9999.0,ESE,29.9,-,N/A,,Unknown,120,2013-09-04 23:30:00
10:00 AM,69.8,62.6,78,30.27,-9999.0,ESE,29.9,-,N/A,,Unknown,120,2013-09-05 00:00:00
10:30 AM,71.6,60.8,69,30.24,-9999.0,ESE,31.1,-,N/A,,Unknown,120,2013-09-05 00:30:00
11:00 AM,69.8,64.4,83,30.24,-9999.0,ESE,29.9,-,N/A,,Unknown,120,2013-09-05 01:00:00
11:15 AM,69.8,66.2,88,30.24,-9999.0,SSE,28.8,-,N/A,,Unknown,150,2013-09-05 01:15:00
11:30 AM,69.8,66.2,88,30.24,-9999.0,SSE,29.9,-,N/A,,Unknown,150,2013-09-05 01:30:00
12:00 PM,69,63,77,30.24,,SSE,29.9,,,,,150,2013-09-05 02:00:00
12:00 PM,69.8,62.6,78,30.24,-9999.0,SSE,29.9,-,N/A,,Unknown,150,2013-09-05 02:00:00
12:30 PM,69.8,64.4,83,30.21,-9999.0,SSE,29.9,-,N/A,,Unknown,150,2013-09-05 02:30:00
1:00 PM,69.8,64.4,83,30.21,-9999.0,SSE,28.8,-,N/A,,Unknown,150,2013-09-05 03:00:00
1:30 PM,71.6,60.8,69,30.18,-9999.0,SE,31.1,-,N/A,,Unknown,140,2013-09-05 03:30:00
2:00 PM,69.8,62.6,78,30.18,-9999.0,ESE,29.9,-,N/A,,Unknown,120,2013-09-05 04:00:00
2:30 PM,71.6,62.6,73,30.18,-9999.0,SE,28.8,-,N/A,,Unknown,130,2013-09-05 04:30:00
3:00 PM,71,62,67,30.19,,SE,28.8,,,,,130,2013-09-05 05:00:00
3:00 PM,69.8,62.6,78,30.18,-9999.0,SE,28.8,-,N/A,,Unknown,130,2013-09-05 05:00:00
3:30 PM,69.8,60.8,73,30.18,-9999.0,SE,31.1,-,N/A,,Unknown,130,2013-09-05 05:30:00
4:00 PM,69.8,62.6,78,30.18,-9999.0,SE,29.9,-,N/A,,Unknown,130,2013-09-05 06:00:00
4:30 PM,69.8,60.8,73,30.18,-9999.0,SE,28.8,-,N/A,,Unknown,130,2013-09-05 06:30:00
5:00 PM,69.8,62.6,78,30.18,-9999.0,SE,29.9,-,N/A,,Unknown,130,2013-09-05 07:00:00
5:30 PM,69.8,62.6,78,30.18,-9999.0,SE,27.6,-,N/A,,Unknown,130,2013-09-05 07:30:00
6:00 PM,69,62,71,30.21,,SE,29.9,,,,,130,2013-09-05 08:00:00
6:00 PM,69.8,62.6,78,30.21,-9999.0,SE,29.9,-,N/A,,Unknown,130,2013-09-05 08:00:00
6:30 PM,68.0,60.8,78,30.21,-9999.0,SE,27.6,-,N/A,,Unknown,130,2013-09-05 08:30:00
7:00 PM,68.0,60.8,78,30.21,-9999.0,ESE,27.6,-,N/A,,Unknown,120,2013-09-05 09:00:00
7:30 PM,68.0,59.0,73,30.24,-9999.0,ESE,28.8,-,N/A,,Unknown,120,2013-09-05 09:30:00
8:00 PM,68.0,60.8,78,30.24,-9999.0,ESE,29.9,-,N/A,,Unknown,120,2013-09-05 10:00:00
9:00 PM,69,62,72,30.25,,SE,32.2,,,,,130,2013-09-05 11:00:00
9:00 PM,69.8,62.6,78,30.24,-9999.0,SE,32.2,-,N/A,,Unknown,130,2013-09-05 11:00:00
9:30 PM,69.8,62.6,78,30.24,-9999.0,SE,29.9,-,N/A,,Unknown,130,2013-09-05 11:30:00
10:00 PM,69.8,62.6,78,30.24,-9999.0,SE,31.1,-,N/A,,Unknown,130,2013-09-05 12:00:00
10:30 PM,69.8,62.6,78,30.24,-9999.0,SE,31.1,-,N/A,,Unknown,130,2013-09-05 12:30:00
11:00 PM,69.8,62.6,78,30.24,-9999.0,SE,29.9,-,N/A,,Unknown,130,2013-09-05 13:00:00
11:39 PM,69.8,62.6,78,30.21,-9999.0,SE,29.9,44.9,N/A,,Unknown,130,2013-09-05 13:39:00